sensor_id;sensor_type;location;lat;lon;timestamp;temperature;humidity
51613;DHT22;37694;51.748;14.326;2022-11-20T00:00:53;22.70;44.90
51613;DHT22;37694;51.748;14.326;2022-11-20T00:03:19;22.60;44.90
51613;DHT22;37694;51.748;14.326;2022-11-20T00:05:45;22.60;44.90
51613;DHT22;37694;51.748;14.326;2022-11-20T00:08:11;22.60;44.90
51613;DHT22;37694;51.748;14.326;2022-11-20T00:10:37;22.60;44.80
51613;DHT22;37694;51.748;14.326;2022-11-20T00:13:03;22.50;44.80
51613;DHT22;37694;51.748;14.326;2022-11-20T00:15:30;22.50;44.80
51613;DHT22;37694;51.748;14.326;2022-11-20T00:17:56;22.50;44.70
51613;DHT22;37694;51.748;14.326;2022-11-20T00:20:22;22.50;44.60
51613;DHT22;37694;51.748;14.326;2022-11-20T00:22:49;22.50;44.60
51613;DHT22;37694;51.748;14.326;2022-11-20T00:25:15;22.50;44.60
51613;DHT22;37694;51.748;14.326;2022-11-20T00:27:41;22.40;44.60
51613;DHT22;37694;51.748;14.326;2022-11-20T00:30:07;22.40;44.60
51613;DHT22;37694;51.748;14.326;2022-11-20T00:32:33;22.40;44.60
51613;DHT22;37694;51.748;14.326;2022-11-20T00:34:59;22.40;44.70
51613;DHT22;37694;51.748;14.326;2022-11-20T00:37:24;22.40;44.60
51613;DHT22;37694;51.748;14.326;2022-11-20T00:39:50;22.30;44.60
51613;DHT22;37694;51.748;14.326;2022-11-20T00:42:15;22.30;44.60
51613;DHT22;37694;51.748;14.326;2022-11-20T00:44:41;22.40;44.60
51613;DHT22;37694;51.748;14.326;2022-11-20T00:47:07;22.30;44.60
51613;DHT22;37694;51.748;14.326;2022-11-20T00:49:32;22.30;44.50
51613;DHT22;37694;51.748;14.326;2022-11-20T00:51:58;22.30;44.50
51613;DHT22;37694;51.748;14.326;2022-11-20T00:54:24;22.30;44.50
51613;DHT22;37694;51.748;14.326;2022-11-20T00:56:49;22.30;44.50
51613;DHT22;37694;51.748;14.326;2022-11-20T00:59:15;22.30;44.50
51613;DHT22;37694;51.748;14.326;2022-11-20T01:01:40;22.20;44.50
51613;DHT22;37694;51.748;14.326;2022-11-20T01:04:06;22.20;44.50
51613;DHT22;37694;51.748;14.326;2022-11-20T01:06:37;22.20;44.50
51613;DHT22;37694;51.748;14.326;2022-11-20T01:09:12;22.20;44.50
51613;DHT22;37694;51.748;14.326;2022-11-20T01:11:43;22.20;44.40
51613;DHT22;37694;51.748;14.326;2022-11-20T01:14:12;22.10;44.40
51613;DHT22;37694;51.748;14.326;2022-11-20T01:16:40;22.10;44.40
51613;DHT22;37694;51.748;14.326;2022-11-20T01:19:13;22.10;44.30
51613;DHT22;37694;51.748;14.326;2022-11-20T01:21:41;22.10;44.40
51613;DHT22;37694;51.748;14.326;2022-11-20T01:24:10;22.10;44.40
51613;DHT22;37694;51.748;14.326;2022-11-20T01:26:38;22.00;44.40
51613;DHT22;37694;51.748;14.326;2022-11-20T01:29:05;22.00;44.30
51613;DHT22;37694;51.748;14.326;2022-11-20T01:31:33;22.00;44.30
51613;DHT22;37694;51.748;14.326;2022-11-20T01:34:08;22.00;44.20
51613;DHT22;37694;51.748;14.326;2022-11-20T01:36:36;22.00;44.20
51613;DHT22;37694;51.748;14.326;2022-11-20T01:39:04;21.90;45.10
51613;DHT22;37694;51.748;14.326;2022-11-20T01:41:32;21.90;44.30
51613;DHT22;37694;51.748;14.326;2022-11-20T01:44:19;21.90;44.20
51613;DHT22;37694;51.748;14.326;2022-11-20T01:46:57;21.90;44.20
51613;DHT22;37694;51.748;14.326;2022-11-20T01:49:45;21.90;44.20
51613;DHT22;37694;51.748;14.326;2022-11-20T01:52:21;21.90;44.20
51613;DHT22;37694;51.748;14.326;2022-11-20T01:57:33;21.80;44.30
51613;DHT22;37694;51.748;14.326;2022-11-20T02:00:09;21.80;44.30
51613;DHT22;37694;51.748;14.326;2022-11-20T02:02:36;21.80;44.10
51613;DHT22;37694;51.748;14.326;2022-11-20T02:05:25;21.80;44.10
51613;DHT22;37694;51.748;14.326;2022-11-20T02:07:52;21.80;44.10
51613;DHT22;37694;51.748;14.326;2022-11-20T02:10:20;21.80;44.30
51613;DHT22;37694;51.748;14.326;2022-11-20T02:12:46;21.80;44.10
51613;DHT22;37694;51.748;14.326;2022-11-20T02:15:31;21.80;44.30
51613;DHT22;37694;51.748;14.326;2022-11-20T02:17:57;21.70;44.10
51613;DHT22;37694;51.748;14.326;2022-11-20T02:20:23;21.70;44.00
51613;DHT22;37694;51.748;14.326;2022-11-20T02:22:57;21.70;44.00
51613;DHT22;37694;51.748;14.326;2022-11-20T02:25:26;21.70;44.40
51613;DHT22;37694;51.748;14.326;2022-11-20T02:27:52;21.60;44.00
51613;DHT22;37694;51.748;14.326;2022-11-20T02:30:18;21.60;44.00
51613;DHT22;37694;51.748;14.326;2022-11-20T02:32:44;21.60;43.90
51613;DHT22;37694;51.748;14.326;2022-11-20T02:37:58;21.60;43.80
51613;DHT22;37694;51.748;14.326;2022-11-20T02:40:34;21.60;43.80
51613;DHT22;37694;51.748;14.326;2022-11-20T02:42:59;21.50;43.80
51613;DHT22;37694;51.748;14.326;2022-11-20T02:45:25;21.50;44.00
51613;DHT22;37694;51.748;14.326;2022-11-20T02:47:51;21.50;43.70
51613;DHT22;37694;51.748;14.326;2022-11-20T02:50:18;21.50;43.70
51613;DHT22;37694;51.748;14.326;2022-11-20T02:52:43;21.50;43.70
51613;DHT22;37694;51.748;14.326;2022-11-20T02:55:09;21.50;43.80
51613;DHT22;37694;51.748;14.326;2022-11-20T02:57:35;21.50;43.70
51613;DHT22;37694;51.748;14.326;2022-11-20T03:00:02;21.50;43.70
51613;DHT22;37694;51.748;14.326;2022-11-20T03:02:31;21.40;43.60
51613;DHT22;37694;51.748;14.326;2022-11-20T03:04:57;21.40;43.60
51613;DHT22;37694;51.748;14.326;2022-11-20T03:07:23;21.40;43.60
51613;DHT22;37694;51.748;14.326;2022-11-20T03:09:48;21.40;43.60
51613;DHT22;37694;51.748;14.326;2022-11-20T03:12:14;21.40;43.60
51613;DHT22;37694;51.748;14.326;2022-11-20T03:14:39;21.40;43.70
51613;DHT22;37694;51.748;14.326;2022-11-20T03:17:05;21.40;43.60
51613;DHT22;37694;51.748;14.326;2022-11-20T03:19:31;21.30;43.50
51613;DHT22;37694;51.748;14.326;2022-11-20T03:21:57;21.30;43.50
51613;DHT22;37694;51.748;14.326;2022-11-20T03:24:23;21.30;43.60
51613;DHT22;37694;51.748;14.326;2022-11-20T03:26:48;21.30;43.60
51613;DHT22;37694;51.748;14.326;2022-11-20T03:29:14;21.30;43.50
51613;DHT22;37694;51.748;14.326;2022-11-20T03:31:40;21.30;43.50
51613;DHT22;37694;51.748;14.326;2022-11-20T03:34:07;21.30;43.40
51613;DHT22;37694;51.748;14.326;2022-11-20T03:36:33;21.20;43.40
51613;DHT22;37694;51.748;14.326;2022-11-20T03:38:59;21.20;43.60
51613;DHT22;37694;51.748;14.326;2022-11-20T03:41:30;21.20;43.40
51613;DHT22;37694;51.748;14.326;2022-11-20T03:44:01;21.20;43.40
51613;DHT22;37694;51.748;14.326;2022-11-20T03:46:28;21.20;43.60
51613;DHT22;37694;51.748;14.326;2022-11-20T03:48:54;21.20;43.40
51613;DHT22;37694;51.748;14.326;2022-11-20T03:53:51;21.10;43.40
51613;DHT22;37694;51.748;14.326;2022-11-20T03:56:19;21.10;43.40
51613;DHT22;37694;51.748;14.326;2022-11-20T03:58:45;21.10;43.40
51613;DHT22;37694;51.748;14.326;2022-11-20T04:01:16;21.10;43.50
51613;DHT22;37694;51.748;14.326;2022-11-20T04:03:43;21.10;43.40
51613;DHT22;37694;51.748;14.326;2022-11-20T04:08:36;21.10;43.40
51613;DHT22;37694;51.748;14.326;2022-11-20T04:11:12;21.00;43.40
51613;DHT22;37694;51.748;14.326;2022-11-20T04:13:39;21.00;43.20
51613;DHT22;37694;51.748;14.326;2022-11-20T04:16:06;21.10;43.40
51613;DHT22;37694;51.748;14.326;2022-11-20T04:18:33;21.10;43.40
51613;DHT22;37694;51.748;14.326;2022-11-20T04:20:59;21.00;43.40
51613;DHT22;37694;51.748;14.326;2022-11-20T04:23:25;21.00;43.50
51613;DHT22;37694;51.748;14.326;2022-11-20T04:25:51;21.00;43.20
51613;DHT22;37694;51.748;14.326;2022-11-20T04:28:17;21.00;43.30
51613;DHT22;37694;51.748;14.326;2022-11-20T04:30:42;21.00;43.30
51613;DHT22;37694;51.748;14.326;2022-11-20T04:33:08;20.90;43.30
51613;DHT22;37694;51.748;14.326;2022-11-20T04:35:35;20.90;43.30
51613;DHT22;37694;51.748;14.326;2022-11-20T04:38:01;21.00;43.20
51613;DHT22;37694;51.748;14.326;2022-11-20T04:40:28;21.00;43.30
51613;DHT22;37694;51.748;14.326;2022-11-20T04:42:54;20.90;43.30
51613;DHT22;37694;51.748;14.326;2022-11-20T04:45:20;20.90;43.20
51613;DHT22;37694;51.748;14.326;2022-11-20T04:47:46;20.90;43.30
51613;DHT22;37694;51.748;14.326;2022-11-20T04:50:11;20.90;43.30
51613;DHT22;37694;51.748;14.326;2022-11-20T04:52:37;20.90;43.30
51613;DHT22;37694;51.748;14.326;2022-11-20T04:55:03;20.90;43.30
51613;DHT22;37694;51.748;14.326;2022-11-20T04:57:28;20.90;43.30
51613;DHT22;37694;51.748;14.326;2022-11-20T04:59:54;20.80;43.20
51613;DHT22;37694;51.748;14.326;2022-11-20T05:02:20;20.80;43.30
51613;DHT22;37694;51.748;14.326;2022-11-20T05:04:46;20.80;43.40
51613;DHT22;37694;51.748;14.326;2022-11-20T05:07:11;20.80;43.30
51613;DHT22;37694;51.748;14.326;2022-11-20T05:09:37;20.80;43.50
51613;DHT22;37694;51.748;14.326;2022-11-20T05:12:03;20.80;43.50
51613;DHT22;37694;51.748;14.326;2022-11-20T05:14:28;20.80;43.50
51613;DHT22;37694;51.748;14.326;2022-11-20T05:16:54;20.80;43.60
51613;DHT22;37694;51.748;14.326;2022-11-20T05:19:20;20.80;43.60
51613;DHT22;37694;51.748;14.326;2022-11-20T05:21:45;20.80;43.60
51613;DHT22;37694;51.748;14.326;2022-11-20T05:24:11;20.80;43.70
51613;DHT22;37694;51.748;14.326;2022-11-20T05:26:37;20.80;43.70
51613;DHT22;37694;51.748;14.326;2022-11-20T05:29:03;20.80;43.70
51613;DHT22;37694;51.748;14.326;2022-11-20T05:31:28;20.80;43.80
51613;DHT22;37694;51.748;14.326;2022-11-20T05:33:55;20.80;43.80
51613;DHT22;37694;51.748;14.326;2022-11-20T05:36:21;20.80;43.80
51613;DHT22;37694;51.748;14.326;2022-11-20T05:38:47;20.80;43.80
51613;DHT22;37694;51.748;14.326;2022-11-20T05:41:15;20.80;44.00
51613;DHT22;37694;51.748;14.326;2022-11-20T05:43:42;20.90;43.90
51613;DHT22;37694;51.748;14.326;2022-11-20T05:46:10;20.80;44.00
51613;DHT22;37694;51.748;14.326;2022-11-20T05:48:37;20.90;44.00
51613;DHT22;37694;51.748;14.326;2022-11-20T05:51:05;20.80;43.90
51613;DHT22;37694;51.748;14.326;2022-11-20T05:53:33;20.90;44.10
51613;DHT22;37694;51.748;14.326;2022-11-20T05:56:06;20.90;44.20
51613;DHT22;37694;51.748;14.326;2022-11-20T05:58:33;20.90;44.20
51613;DHT22;37694;51.748;14.326;2022-11-20T06:01:13;20.80;44.30
51613;DHT22;37694;51.748;14.326;2022-11-20T06:03:40;20.90;44.40
51613;DHT22;37694;51.748;14.326;2022-11-20T06:06:06;20.80;44.40
51613;DHT22;37694;51.748;14.326;2022-11-20T06:08:32;20.80;44.50
51613;DHT22;37694;51.748;14.326;2022-11-20T06:10:58;20.90;44.70
51613;DHT22;37694;51.748;14.326;2022-11-20T06:13:24;20.90;44.50
51613;DHT22;37694;51.748;14.326;2022-11-20T06:15:51;20.80;44.40
51613;DHT22;37694;51.748;14.326;2022-11-20T06:18:17;20.90;45.40
51613;DHT22;37694;51.748;14.326;2022-11-20T06:20:43;20.80;44.60
51613;DHT22;37694;51.748;14.326;2022-11-20T06:23:08;20.80;44.70
51613;DHT22;37694;51.748;14.326;2022-11-20T06:25:38;20.80;44.60
51613;DHT22;37694;51.748;14.326;2022-11-20T06:28:04;20.80;44.70
51613;DHT22;37694;51.748;14.326;2022-11-20T06:30:29;20.80;44.70
51613;DHT22;37694;51.748;14.326;2022-11-20T06:32:55;20.80;44.70
51613;DHT22;37694;51.748;14.326;2022-11-20T06:35:21;20.80;44.80
51613;DHT22;37694;51.748;14.326;2022-11-20T06:37:46;20.80;45.20
51613;DHT22;37694;51.748;14.326;2022-11-20T06:40:12;20.90;45.20
51613;DHT22;37694;51.748;14.326;2022-11-20T06:42:38;20.90;45.10
51613;DHT22;37694;51.748;14.326;2022-11-20T06:45:04;20.90;45.00
51613;DHT22;37694;51.748;14.326;2022-11-20T06:47:29;21.00;44.90
51613;DHT22;37694;51.748;14.326;2022-11-20T06:49:55;21.20;44.90
51613;DHT22;37694;51.748;14.326;2022-11-20T06:52:21;21.20;44.80
51613;DHT22;37694;51.748;14.326;2022-11-20T06:54:47;21.30;44.70
51613;DHT22;37694;51.748;14.326;2022-11-20T06:57:12;21.40;44.60
51613;DHT22;37694;51.748;14.326;2022-11-20T06:59:38;21.50;44.60
51613;DHT22;37694;51.748;14.326;2022-11-20T07:02:03;21.60;44.60
51613;DHT22;37694;51.748;14.326;2022-11-20T07:04:29;21.60;44.50
51613;DHT22;37694;51.748;14.326;2022-11-20T07:06:55;21.70;44.40
51613;DHT22;37694;51.748;14.326;2022-11-20T07:09:20;21.80;44.30
51613;DHT22;37694;51.748;14.326;2022-11-20T07:11:46;21.90;44.20
51613;DHT22;37694;51.748;14.326;2022-11-20T07:14:12;21.90;44.10
51613;DHT22;37694;51.748;14.326;2022-11-20T07:16:37;22.10;44.20
51613;DHT22;37694;51.748;14.326;2022-11-20T07:19:03;22.10;44.10
51613;DHT22;37694;51.748;14.326;2022-11-20T07:21:28;22.20;44.00
51613;DHT22;37694;51.748;14.326;2022-11-20T07:23:54;22.30;43.90
51613;DHT22;37694;51.748;14.326;2022-11-20T07:26:20;22.40;44.00
51613;DHT22;37694;51.748;14.326;2022-11-20T07:28:46;22.40;44.00
51613;DHT22;37694;51.748;14.326;2022-11-20T07:31:12;22.50;43.90
51613;DHT22;37694;51.748;14.326;2022-11-20T07:33:38;22.60;44.00
51613;DHT22;37694;51.748;14.326;2022-11-20T07:36:04;22.70;44.00
51613;DHT22;37694;51.748;14.326;2022-11-20T07:38:30;22.80;44.00
51613;DHT22;37694;51.748;14.326;2022-11-20T07:40:57;22.80;44.00
51613;DHT22;37694;51.748;14.326;2022-11-20T07:43:23;22.90;44.00
51613;DHT22;37694;51.748;14.326;2022-11-20T07:45:49;23.00;43.90
51613;DHT22;37694;51.748;14.326;2022-11-20T07:48:15;23.10;43.90
51613;DHT22;37694;51.748;14.326;2022-11-20T07:50:41;23.10;43.80
51613;DHT22;37694;51.748;14.326;2022-11-20T07:53:06;23.20;43.70
51613;DHT22;37694;51.748;14.326;2022-11-20T07:55:32;23.20;43.70
51613;DHT22;37694;51.748;14.326;2022-11-20T07:57:58;23.30;43.60
51613;DHT22;37694;51.748;14.326;2022-11-20T08:00:24;23.30;43.60
51613;DHT22;37694;51.748;14.326;2022-11-20T08:02:50;23.40;43.50
51613;DHT22;37694;51.748;14.326;2022-11-20T08:05:16;23.40;43.40
51613;DHT22;37694;51.748;14.326;2022-11-20T08:07:43;23.40;43.40
51613;DHT22;37694;51.748;14.326;2022-11-20T08:10:11;23.40;43.30
51613;DHT22;37694;51.748;14.326;2022-11-20T08:12:47;23.50;43.20
51613;DHT22;37694;51.748;14.326;2022-11-20T08:15:31;23.50;43.10
51613;DHT22;37694;51.748;14.326;2022-11-20T08:18:08;23.50;43.10
51613;DHT22;37694;51.748;14.326;2022-11-20T08:20:34;23.50;43.10
51613;DHT22;37694;51.748;14.326;2022-11-20T08:23:01;23.50;43.10
51613;DHT22;37694;51.748;14.326;2022-11-20T08:25:28;23.50;42.90
51613;DHT22;37694;51.748;14.326;2022-11-20T08:27:59;23.50;43.10
51613;DHT22;37694;51.748;14.326;2022-11-20T08:30:26;23.40;42.90
51613;DHT22;37694;51.748;14.326;2022-11-20T08:32:52;23.40;43.00
51613;DHT22;37694;51.748;14.326;2022-11-20T08:35:18;23.40;43.30
51613;DHT22;37694;51.748;14.326;2022-11-20T08:37:46;23.40;43.30
51613;DHT22;37694;51.748;14.326;2022-11-20T08:40:12;23.40;43.20
51613;DHT22;37694;51.748;14.326;2022-11-20T08:42:49;23.30;43.20
51613;DHT22;37694;51.748;14.326;2022-11-20T08:45:16;23.40;43.50
51613;DHT22;37694;51.748;14.326;2022-11-20T08:47:42;23.30;43.20
51613;DHT22;37694;51.748;14.326;2022-11-20T08:50:13;23.30;43.10
51613;DHT22;37694;51.748;14.326;2022-11-20T08:52:39;23.30;43.00
51613;DHT22;37694;51.748;14.326;2022-11-20T08:55:05;23.30;43.10
51613;DHT22;37694;51.748;14.326;2022-11-20T08:57:35;23.30;43.30
51613;DHT22;37694;51.748;14.326;2022-11-20T09:00:02;23.30;43.20
51613;DHT22;37694;51.748;14.326;2022-11-20T09:02:28;23.30;43.30
51613;DHT22;37694;51.748;14.326;2022-11-20T09:04:54;23.30;43.20
51613;DHT22;37694;51.748;14.326;2022-11-20T09:07:20;23.20;43.20
51613;DHT22;37694;51.748;14.326;2022-11-20T09:09:45;23.20;43.20
51613;DHT22;37694;51.748;14.326;2022-11-20T09:12:11;23.20;43.20
51613;DHT22;37694;51.748;14.326;2022-11-20T09:14:37;23.20;43.50
51613;DHT22;37694;51.748;14.326;2022-11-20T09:17:02;23.10;43.60
51613;DHT22;37694;51.748;14.326;2022-11-20T09:19:28;23.10;43.70
51613;DHT22;37694;51.748;14.326;2022-11-20T09:21:54;23.00;44.00
51613;DHT22;37694;51.748;14.326;2022-11-20T09:24:19;23.00;44.70
51613;DHT22;37694;51.748;14.326;2022-11-20T09:26:48;23.10;44.60
51613;DHT22;37694;51.748;14.326;2022-11-20T09:29:13;23.10;44.60
51613;DHT22;37694;51.748;14.326;2022-11-20T09:31:39;23.20;44.70
51613;DHT22;37694;51.748;14.326;2022-11-20T09:34:05;23.20;44.50
51613;DHT22;37694;51.748;14.326;2022-11-20T09:36:30;23.30;44.30
51613;DHT22;37694;51.748;14.326;2022-11-20T09:38:56;23.40;44.20
51613;DHT22;37694;51.748;14.326;2022-11-20T09:50:40;23.80;43.60
51613;DHT22;37694;51.748;14.326;2022-11-20T09:55:37;23.80;43.20
51613;DHT22;37694;51.748;14.326;2022-11-20T09:58:06;23.80;42.40
51613;DHT22;37694;51.748;14.326;2022-11-20T10:00:35;23.80;42.10
51613;DHT22;37694;51.748;14.326;2022-11-20T10:03:13;23.80;41.70
51613;DHT22;37694;51.748;14.326;2022-11-20T10:05:47;23.90;41.90
51613;DHT22;37694;51.748;14.326;2022-11-20T10:08:25;23.80;40.00
51613;DHT22;37694;51.748;14.326;2022-11-20T10:24:48;23.50;35.40
51613;DHT22;37694;51.748;14.326;2022-11-20T10:28:05;23.40;34.90
51613;DHT22;37694;51.748;14.326;2022-11-20T10:30:15;23.30;34.30
51613;DHT22;37694;51.748;14.326;2022-11-20T10:33:32;23.20;34.90
51613;DHT22;37694;51.748;14.326;2022-11-20T10:35:45;23.20;33.90
51613;DHT22;37694;51.748;14.326;2022-11-20T10:38:31;23.10;34.60
51613;DHT22;37694;51.748;14.326;2022-11-20T10:41:01;23.10;34.00
51613;DHT22;37694;51.748;14.326;2022-11-20T10:43:47;23.00;34.20
51613;DHT22;37694;51.748;14.326;2022-11-20T10:46:21;23.00;34.50
51613;DHT22;37694;51.748;14.326;2022-11-20T10:48:48;23.00;33.60
51613;DHT22;37694;51.748;14.326;2022-11-20T10:54:22;22.90;34.00
51613;DHT22;37694;51.748;14.326;2022-11-20T10:56:53;22.90;33.70
51613;DHT22;37694;51.748;14.326;2022-11-20T11:02:17;22.80;33.70
51613;DHT22;37694;51.748;14.326;2022-11-20T11:04:52;22.70;34.40
51613;DHT22;37694;51.748;14.326;2022-11-20T11:07:23;22.70;34.90
51613;DHT22;37694;51.748;14.326;2022-11-20T11:09:54;22.70;36.10
51613;DHT22;37694;51.748;14.326;2022-11-20T11:12:22;22.80;36.30
51613;DHT22;37694;51.748;14.326;2022-11-20T11:14:55;22.80;36.80
51613;DHT22;37694;51.748;14.326;2022-11-20T11:17:24;22.90;37.40
51613;DHT22;37694;51.748;14.326;2022-11-20T11:22:31;23.00;38.90
51613;DHT22;37694;51.748;14.326;2022-11-20T11:24:57;23.20;38.80
51613;DHT22;37694;51.748;14.326;2022-11-20T11:27:23;23.30;39.00
51613;DHT22;37694;51.748;14.326;2022-11-20T11:29:49;23.40;38.70
51613;DHT22;37694;51.748;14.326;2022-11-20T11:32:18;23.60;38.90
51613;DHT22;37694;51.748;14.326;2022-11-20T11:34:44;23.70;39.10
51613;DHT22;37694;51.748;14.326;2022-11-20T11:37:17;23.80;39.20
51613;DHT22;37694;51.748;14.326;2022-11-20T11:39:43;23.90;39.20
51613;DHT22;37694;51.748;14.326;2022-11-20T11:42:15;24.00;39.40
51613;DHT22;37694;51.748;14.326;2022-11-20T11:44:45;24.00;39.20
51613;DHT22;37694;51.748;14.326;2022-11-20T11:47:36;24.00;38.20
51613;DHT22;37694;51.748;14.326;2022-11-20T12:06:45;24.20;38.10
51613;DHT22;37694;51.748;14.326;2022-11-20T12:09:13;24.20;38.20
51613;DHT22;37694;51.748;14.326;2022-11-20T12:12:04;24.20;38.50
51613;DHT22;37694;51.748;14.326;2022-11-20T12:14:35;24.20;38.40
51613;DHT22;37694;51.748;14.326;2022-11-20T12:17:02;24.20;38.70
51613;DHT22;37694;51.748;14.326;2022-11-20T12:19:33;24.20;38.60
51613;DHT22;37694;51.748;14.326;2022-11-20T12:22:41;24.20;38.70
51613;DHT22;37694;51.748;14.326;2022-11-20T12:25:16;24.30;38.90
51613;DHT22;37694;51.748;14.326;2022-11-20T12:30:27;24.30;39.10
51613;DHT22;37694;51.748;14.326;2022-11-20T12:44:34;24.30;40.70
51613;DHT22;37694;51.748;14.326;2022-11-20T12:50:39;24.30;40.50
51613;DHT22;37694;51.748;14.326;2022-11-20T12:55:56;24.30;40.70
51613;DHT22;37694;51.748;14.326;2022-11-20T13:01:15;24.20;40.40
51613;DHT22;37694;51.748;14.326;2022-11-20T13:04:12;24.20;40.00
51613;DHT22;37694;51.748;14.326;2022-11-20T13:06:43;24.20;40.20
51613;DHT22;37694;51.748;14.326;2022-11-20T13:09:13;24.10;40.10
51613;DHT22;37694;51.748;14.326;2022-11-20T13:19:49;24.10;40.30
51613;DHT22;37694;51.748;14.326;2022-11-20T13:22:28;24.10;40.30
51613;DHT22;37694;51.748;14.326;2022-11-20T13:24:54;24.10;40.30
51613;DHT22;37694;51.748;14.326;2022-11-20T13:27:23;24.00;40.30
51613;DHT22;37694;51.748;14.326;2022-11-20T13:30:25;24.00;40.20
51613;DHT22;37694;51.748;14.326;2022-11-20T13:32:54;24.00;40.30
51613;DHT22;37694;51.748;14.326;2022-11-20T13:35:33;23.90;40.30
51613;DHT22;37694;51.748;14.326;2022-11-20T13:40:31;23.90;40.20
51613;DHT22;37694;51.748;14.326;2022-11-20T13:45:42;23.80;40.30
51613;DHT22;37694;51.748;14.326;2022-11-20T13:48:22;23.70;40.30
51613;DHT22;37694;51.748;14.326;2022-11-20T13:51:05;23.70;40.10
51613;DHT22;37694;51.748;14.326;2022-11-20T13:56:34;23.60;40.70
51613;DHT22;37694;51.748;14.326;2022-11-20T14:01:53;23.60;40.60
51613;DHT22;37694;51.748;14.326;2022-11-20T14:04:27;23.50;40.60
51613;DHT22;37694;51.748;14.326;2022-11-20T14:06:54;23.50;40.50
51613;DHT22;37694;51.748;14.326;2022-11-20T14:09:29;23.50;40.70
51613;DHT22;37694;51.748;14.326;2022-11-20T14:11:56;23.50;40.50
51613;DHT22;37694;51.748;14.326;2022-11-20T14:14:25;23.50;40.50
51613;DHT22;37694;51.748;14.326;2022-11-20T14:16:51;23.50;40.50
51613;DHT22;37694;51.748;14.326;2022-11-20T14:21:53;23.40;40.60
51613;DHT22;37694;51.748;14.326;2022-11-20T14:24:21;23.40;40.50
51613;DHT22;37694;51.748;14.326;2022-11-20T14:26:47;23.40;40.60
51613;DHT22;37694;51.748;14.326;2022-11-20T14:31:45;23.40;40.30
51613;DHT22;37694;51.748;14.326;2022-11-20T14:34:27;23.30;40.60
51613;DHT22;37694;51.748;14.326;2022-11-20T14:36:58;23.30;40.30
51613;DHT22;37694;51.748;14.326;2022-11-20T14:39:36;23.30;40.60
51613;DHT22;37694;51.748;14.326;2022-11-20T14:42:11;23.30;40.60
51613;DHT22;37694;51.748;14.326;2022-11-20T14:44:39;23.20;40.60
51613;DHT22;37694;51.748;14.326;2022-11-20T14:47:08;23.20;40.50
51613;DHT22;37694;51.748;14.326;2022-11-20T14:49:37;23.20;40.60
51613;DHT22;37694;51.748;14.326;2022-11-20T14:52:12;23.20;40.70
51613;DHT22;37694;51.748;14.326;2022-11-20T14:54:51;23.10;40.80
51613;DHT22;37694;51.748;14.326;2022-11-20T14:59:46;23.00;40.90
51613;DHT22;37694;51.748;14.326;2022-11-20T15:02:12;23.00;40.80
51613;DHT22;37694;51.748;14.326;2022-11-20T15:05:00;23.00;40.80
51613;DHT22;37694;51.748;14.326;2022-11-20T15:07:37;23.00;40.70
51613;DHT22;37694;51.748;14.326;2022-11-20T15:10:06;22.90;40.70
51613;DHT22;37694;51.748;14.326;2022-11-20T15:12:34;22.90;40.60
51613;DHT22;37694;51.748;14.326;2022-11-20T15:15:01;22.90;40.50
51613;DHT22;37694;51.748;14.326;2022-11-20T15:17:28;22.90;40.50
51613;DHT22;37694;51.748;14.326;2022-11-20T15:19:54;22.90;40.40
51613;DHT22;37694;51.748;14.326;2022-11-20T15:22:20;22.80;40.40
51613;DHT22;37694;51.748;14.326;2022-11-20T15:24:46;22.80;40.60
51613;DHT22;37694;51.748;14.326;2022-11-20T15:27:11;22.80;40.50
51613;DHT22;37694;51.748;14.326;2022-11-20T15:29:37;22.80;40.80
51613;DHT22;37694;51.748;14.326;2022-11-20T15:32:03;22.70;40.60
51613;DHT22;37694;51.748;14.326;2022-11-20T15:34:29;22.70;40.80
51613;DHT22;37694;51.748;14.326;2022-11-20T15:36:54;22.70;40.80
51613;DHT22;37694;51.748;14.326;2022-11-20T15:39:20;22.70;40.60
51613;DHT22;37694;51.748;14.326;2022-11-20T15:41:46;22.70;40.60
51613;DHT22;37694;51.748;14.326;2022-11-20T15:44:12;22.60;40.60
51613;DHT22;37694;51.748;14.326;2022-11-20T15:46:40;22.60;40.50
51613;DHT22;37694;51.748;14.326;2022-11-20T15:49:15;22.60;40.60
51613;DHT22;37694;51.748;14.326;2022-11-20T15:51:45;22.60;40.50
51613;DHT22;37694;51.748;14.326;2022-11-20T15:54:17;22.60;40.50
51613;DHT22;37694;51.748;14.326;2022-11-20T15:56:45;22.50;40.50
51613;DHT22;37694;51.748;14.326;2022-11-20T15:59:11;22.50;40.40
51613;DHT22;37694;51.748;14.326;2022-11-20T16:01:39;22.50;40.40
51613;DHT22;37694;51.748;14.326;2022-11-20T16:04:13;22.50;40.40
51613;DHT22;37694;51.748;14.326;2022-11-20T16:06:38;22.40;40.40
51613;DHT22;37694;51.748;14.326;2022-11-20T16:09:04;22.40;40.50
51613;DHT22;37694;51.748;14.326;2022-11-20T16:11:30;22.40;40.40
51613;DHT22;37694;51.748;14.326;2022-11-20T16:13:55;22.40;40.40
51613;DHT22;37694;51.748;14.326;2022-11-20T16:16:40;22.40;40.30
51613;DHT22;37694;51.748;14.326;2022-11-20T16:19:13;22.30;40.50
51613;DHT22;37694;51.748;14.326;2022-11-20T16:21:39;22.30;40.80
51613;DHT22;37694;51.748;14.326;2022-11-20T16:24:08;22.30;40.90
51613;DHT22;37694;51.748;14.326;2022-11-20T16:26:34;22.30;40.90
51613;DHT22;37694;51.748;14.326;2022-11-20T16:29:01;22.30;41.30
51613;DHT22;37694;51.748;14.326;2022-11-20T16:31:28;22.40;40.90
51613;DHT22;37694;51.748;14.326;2022-11-20T16:33:56;22.40;41.40
51613;DHT22;37694;51.748;14.326;2022-11-20T16:36:23;22.40;41.20
51613;DHT22;37694;51.748;14.326;2022-11-20T16:38:53;22.50;41.00
51613;DHT22;37694;51.748;14.326;2022-11-20T16:41:19;22.60;40.90
51613;DHT22;37694;51.748;14.326;2022-11-20T16:43:50;22.60;40.90
51613;DHT22;37694;51.748;14.326;2022-11-20T16:46:17;22.70;40.70
51613;DHT22;37694;51.748;14.326;2022-11-20T16:48:44;22.80;40.60
51613;DHT22;37694;51.748;14.326;2022-11-20T16:51:11;22.90;41.50
51613;DHT22;37694;51.748;14.326;2022-11-20T16:53:38;23.00;40.50
51613;DHT22;37694;51.748;14.326;2022-11-20T16:56:12;23.20;40.50
51613;DHT22;37694;51.748;14.326;2022-11-20T16:58:38;23.30;40.50
51613;DHT22;37694;51.748;14.326;2022-11-20T17:01:08;23.30;40.40
51613;DHT22;37694;51.748;14.326;2022-11-20T17:03:39;23.40;40.60
51613;DHT22;37694;51.748;14.326;2022-11-20T17:06:19;23.50;40.50
51613;DHT22;37694;51.748;14.326;2022-11-20T17:08:45;23.60;40.50
51613;DHT22;37694;51.748;14.326;2022-11-20T17:11:14;23.60;40.20
51613;DHT22;37694;51.748;14.326;2022-11-20T17:13:40;23.70;40.20
51613;DHT22;37694;51.748;14.326;2022-11-20T17:16:08;23.70;40.30